»·PEaware :: N127KW KSNA-KSNA

N127KW :: KSNA-KSNA

FLIGHT INFORMATION

Flight Status: Arrived
Operator: Privately registered:
United States
More flights under this callsign
Pilot: Fr Itz L. (20918)
Aircraft: CESSNA 172 SKYHAWK
(C172)
More flights by this aircraft type
Origin: KSNA John Wayne-Orange Co
United States
Destination: KSNA John Wayne-Orange Co
United States
More flights between these airports :: More routes between these airports
Route: +SLI
File this flight plan on PilotEdge
Remarks:
Altitude:
(Current/Filed)
3,000ft
Speed:
(Current/Filed)
105kts
Departed: 12-Nov-19 09:48 AM
Arrived: 12-Nov-19 10:00 AM
Distance/Time
Traveled:
0nm/0:12
Distance/Time
To Go:
Arrived

Flight Plot

Page will automatically refresh every two minutes.


Map Options




Map Legend


Flown Route
Filed Route
Departure Airport
Arrival Airport
Navaid (VOR, NDB)
Fix

Horizontal Profiles

Position Reports

Time Latitude Longitude Heading Altitude Ground
Speed
12-Nov-19 09:02 33.675246 -117.871611 38 60ft 0kts
12-Nov-19 09:03 33.675246 -117.871611 38 60ft 0kts
12-Nov-19 09:04 33.675246 -117.871611 38 60ft 0kts
12-Nov-19 09:05 33.675246 -117.871611 38 60ft 0kts
12-Nov-19 09:06 33.675246 -117.871611 38 60ft 0kts
12-Nov-19 09:07 33.675246 -117.871611 38 60ft 0kts
12-Nov-19 09:08 33.675246 -117.871611 38 60ft 0kts
12-Nov-19 09:09 33.675246 -117.871611 38 60ft 0kts
12-Nov-19 09:10 33.675246 -117.871611 38 60ft 0kts
12-Nov-19 09:11 33.675246 -117.871611 38 60ft 0kts
12-Nov-19 09:12 33.675246 -117.871611 38 60ft 0kts
12-Nov-19 09:13 33.675246 -117.871611 38 60ft 0kts
12-Nov-19 09:14 33.675246 -117.871611 38 60ft 0kts
12-Nov-19 09:15 33.675246 -117.871611 38 60ft 0kts
12-Nov-19 09:16 33.675246 -117.871611 38 60ft 0kts
12-Nov-19 09:17 33.675246 -117.871611 38 60ft 0kts
12-Nov-19 09:18 33.675246 -117.871611 38 60ft 0kts
12-Nov-19 09:19 33.675246 -117.871611 38 60ft 0kts
12-Nov-19 09:20 33.675246 -117.871611 38 60ft 0kts
12-Nov-19 09:21 33.675246 -117.871611 38 60ft 0kts
12-Nov-19 09:22 33.675246 -117.871611 38 60ft 0kts
12-Nov-19 09:23 33.675246 -117.871611 38 60ft 0kts
12-Nov-19 09:24 33.675246 -117.871611 38 60ft 0kts
12-Nov-19 09:25 33.675246 -117.871611 38 60ft 0kts
12-Nov-19 09:27 33.675246 -117.871611 38 60ft 0kts
12-Nov-19 09:28 33.675675 -117.870832 26 60ft 8kts
12-Nov-19 09:29 33.677010 -117.869734 54 60ft 0kts
12-Nov-19 09:30 33.680223 -117.867789 15 60ft 22kts
12-Nov-19 09:31 33.681431 -117.866604 48 60ft 0kts
12-Nov-19 09:33 33.675245 -117.871612 38 60ft 0kts
12-Nov-19 09:34 33.675233 -117.871235 121 60ft 10kts
12-Nov-19 09:35 33.677261 -117.869389 32 60ft 27kts
12-Nov-19 09:36 33.681181 -117.867037 49 60ft 2kts
12-Nov-19 09:37 33.681224 -117.866970 53 60ft 0kts
12-Nov-19 09:38 33.681402 -117.866449 55 60ft 0kts
12-Nov-19 09:39 33.681402 -117.866449 55 60ft 0kts
12-Nov-19 09:40 33.681402 -117.866449 55 60ft 0kts
12-Nov-19 09:41 33.681402 -117.866449 55 60ft 0kts
12-Nov-19 09:42 33.681402 -117.866449 55 60ft 0kts
12-Nov-19 09:43 33.681402 -117.866449 55 60ft 0kts
12-Nov-19 09:44 33.681402 -117.866449 55 60ft 0kts
12-Nov-19 09:45 33.681429 -117.866361 96 60ft 2kts
12-Nov-19 09:46 33.680828 -117.865570 181 60ft 3kts
12-Nov-19 09:47 33.671615 -117.873503 223 599ft 55kts
12-Nov-19 09:48 33.660196 -117.886241 227 1339ft 64kts
12-Nov-19 09:49 33.648076 -117.900123 220 2100ft 69kts
12-Nov-19 09:50 33.632206 -117.916271 219 2669ft 86kts
12-Nov-19 09:51 33.606959 -117.944275 258 2403ft 102kts
12-Nov-19 09:52 33.621209 -117.975056 305 2600ft 106kts
12-Nov-19 09:53 33.639868 -118.002569 306 2556ft 109kts
12-Nov-19 09:54 33.659523 -118.029374 307 2486ft 112kts
12-Nov-19 09:55 33.679314 -118.056237 309 2483ft 110kts
12-Nov-19 09:56 33.699700 -118.083067 311 2483ft 107kts
12-Nov-19 09:59 33.675246 -117.871611 38 60ft 0kts

Navigation Log

Ident Type
Flight plan parsing failed, navigation log unavailable